Time;durP1;ratioP1;P1;durP2;ratioP2;P2;SDS_P1;SDS_P2;PMS_P1;PMS_P2;Temp;Humidity;BMP_temperature;BMP_pressure;BME280_temperature;BME280_humidity;BME280_pressure;Samples;Min_cycle;Max_cycle;Signal;HPM_P1;HPM_P2
2023/09/03 00:02:24;;;;;;;8.50;6.67;;;17.70;99.90;;;;;;5081224;28;20199;-67
2023/09/03 00:04:51;;;;;;;6.87;6.20;;;17.70;99.90;;;;;;5079193;28;20784;-68
2023/09/03 00:07:18;;;;;;;7.10;6.50;;;17.70;99.90;;;;;;5073886;28;20210;-67
2023/09/03 00:09:45;;;;;;;6.80;6.20;;;17.70;99.90;;;;;;5074474;28;20210;-67
2023/09/03 00:12:13;;;;;;;7.07;6.37;;;17.70;99.90;;;;;;5081417;28;20223;-68
2023/09/03 00:14:40;;;;;;;7.17;6.10;;;17.70;99.90;;;;;;5077629;28;20608;-69
2023/09/03 00:17:13;;;;;;;8.60;6.60;;;17.70;99.90;;;;;;5084547;28;20221;-68
2023/09/03 00:19:40;;;;;;;7.10;6.60;;;17.70;99.90;;;;;;5069790;28;20661;-69
2023/09/03 00:22:08;;;;;;;9.03;6.90;;;17.70;99.90;;;;;;5078430;28;20685;-69
2023/09/03 00:24:35;;;;;;;7.00;6.23;;;17.60;99.90;;;;;;5076333;28;20456;-69
2023/09/03 00:27:02;;;;;;;6.70;6.20;;;17.70;99.90;;;;;;5075543;28;20256;-69
2023/09/03 00:29:29;;;;;;;6.53;6.07;;;17.70;99.90;;;;;;5075678;28;20199;-69
2023/09/03 00:31:56;;;;;;;7.03;6.33;;;17.70;99.90;;;;;;5071511;28;20206;-69
2023/09/03 00:34:25;;;;;;;6.50;5.97;;;17.70;99.90;;;;;;5081485;28;20203;-69
2023/09/03 00:36:52;;;;;;;6.77;6.17;;;17.70;99.90;;;;;;5086275;28;20211;-68
2023/09/03 00:39:19;;;;;;;6.67;6.20;;;17.70;99.90;;;;;;5087285;28;20606;-68
2023/09/03 00:41:46;;;;;;;6.83;6.33;;;17.70;99.90;;;;;;5087311;28;20206;-68
2023/09/03 00:44:15;;;;;;;6.87;6.27;;;17.70;99.90;;;;;;5087465;28;20242;-68
2023/09/03 00:46:43;;;;;;;7.10;6.47;;;17.60;99.90;;;;;;5089956;28;20202;-68
2023/09/03 00:49:14;;;;;;;9.13;8.23;;;17.70;99.90;;;;;;5107392;28;20241;-69
2023/09/03 00:51:43;;;;;;;8.33;7.30;;;17.50;99.90;;;;;;5106487;28;20202;-69
2023/09/03 00:54:10;;;;;;;7.67;6.87;;;17.50;99.90;;;;;;5066530;28;20659;-68
2023/09/03 00:56:41;;;;;;;7.60;7.00;;;17.50;99.90;;;;;;5066718;28;20719;-68
2023/09/03 00:59:08;;;;;;;8.03;7.33;;;17.50;99.90;;;;;;5066616;28;20238;-69
2023/09/03 01:01:37;;;;;;;8.43;7.37;;;17.50;99.90;;;;;;5072206;28;20239;-68
2023/09/03 01:04:04;;;;;;;9.40;7.47;;;17.60;99.90;;;;;;5086286;28;20226;-69
2023/09/03 01:06:32;;;;;;;7.30;6.80;;;17.60;99.90;;;;;;5086817;28;20207;-68
2023/09/03 01:09:00;;;;;;;8.87;6.87;;;17.70;99.90;;;;;;5085785;28;20639;-68
2023/09/03 01:11:37;;;;;;;7.60;6.83;;;17.70;99.90;;;;;;5086614;28;20715;-68
2023/09/03 01:14:13;;;;;;;7.20;6.50;;;17.70;99.90;;;;;;5086516;28;20646;-68
2023/09/03 01:16:47;;;;;;;6.67;6.17;;;17.70;99.90;;;;;;5089121;28;20206;-69
2023/09/03 01:19:42;;;;;;;7.53;6.93;;;17.60;99.90;;;;;;5089088;28;20286;-68
2023/09/03 01:22:22;;;;;;;7.30;6.60;;;17.70;99.90;;;;;;5085813;28;20216;-68
2023/09/03 01:25:04;;;;;;;7.50;6.83;;;17.70;99.90;;;;;;5068892;28;20689;-68
2023/09/03 01:27:37;;;;;;;7.33;6.57;;;17.60;99.90;;;;;;5065922;28;20708;-68
2023/09/03 01:30:07;;;;;;;7.20;6.67;;;17.70;99.90;;;;;;5066211;28;20231;-68
2023/09/03 01:32:35;;;;;;;7.43;6.67;;;17.70;99.90;;;;;;5072669;28;20680;-69
2023/09/03 01:35:03;;;;;;;7.17;6.50;;;17.60;99.90;;;;;;5085901;28;20207;-69
2023/09/03 01:37:31;;;;;;;6.80;6.17;;;17.70;99.90;;;;;;5085941;28;20260;-68
2023/09/03 01:39:58;;;;;;;7.77;7.17;;;17.60;99.90;;;;;;5086031;28;20214;-69
2023/09/03 01:42:25;;;;;;;7.90;7.10;;;17.60;99.90;;;;;;5086389;28;20234;-69
2023/09/03 01:44:53;;;;;;;6.97;6.37;;;17.60;99.90;;;;;;5084855;28;20235;-69
2023/09/03 01:47:30;;;;;;;7.03;6.33;;;17.60;99.90;;;;;;5094338;28;20297;-66
2023/09/03 01:50:07;;;;;;;7.37;6.80;;;17.60;99.90;;;;;;5105560;28;20198;-66
2023/09/03 01:52:42;;;;;;;7.50;6.90;;;17.60;99.90;;;;;;5106065;28;20236;-66
2023/09/03 01:55:11;;;;;;;7.43;6.70;;;17.60;99.90;;;;;;5106197;28;20304;-66
2023/09/03 01:57:41;;;;;;;8.03;7.30;;;17.50;99.90;;;;;;5092332;28;20282;-66
2023/09/03 02:00:13;;;;;;;6.97;6.30;;;17.50;99.90;;;;;;5085817;28;20260;-66
2023/09/03 02:02:43;;;;;;;7.43;6.83;;;17.50;99.90;;;;;;5085499;28;20203;-66
2023/09/03 02:05:10;;;;;;;7.50;6.90;;;17.50;99.90;;;;;;5085526;28;20234;-66
2023/09/03 02:07:36;;;;;;;8.50;7.70;;;17.40;99.90;;;;;;5085500;28;20293;-66
2023/09/03 02:10:04;;;;;;;8.13;7.37;;;17.40;99.90;;;;;;5084402;28;20306;-66
2023/09/03 02:12:31;;;;;;;8.10;7.40;;;17.40;99.90;;;;;;5084947;28;20747;-66
2023/09/03 02:14:58;;;;;;;7.97;7.17;;;17.30;99.90;;;;;;5084953;28;20749;-66
2023/09/03 02:17:26;;;;;;;8.73;7.90;;;17.30;99.90;;;;;;5094264;28;20304;-66
2023/09/03 02:19:56;;;;;;;7.83;7.23;;;17.30;99.90;;;;;;5104562;28;20202;-66
2023/09/03 02:22:23;;;;;;;8.50;7.80;;;17.30;99.90;;;;;;5088940;28;20206;-65
2023/09/03 02:24:51;;;;;;;7.87;7.20;;;17.30;99.90;;;;;;5085012;28;20258;-66
2023/09/03 02:27:18;;;;;;;8.03;7.43;;;17.30;99.90;;;;;;5084871;28;20211;-66
2023/09/03 02:29:45;;;;;;;7.60;7.10;;;17.20;99.90;;;;;;5085484;28;20679;-66
2023/09/03 02:32:12;;;;;;;8.77;8.10;;;17.20;99.90;;;;;;5065970;28;20203;-66
2023/09/03 02:34:39;;;;;;;8.40;7.80;;;17.20;99.90;;;;;;5083835;28;20297;-66
2023/09/03 02:37:07;;;;;;;8.93;8.13;;;17.20;99.90;;;;;;5085328;28;20218;-66
2023/09/03 02:39:34;;;;;;;8.43;7.73;;;17.20;99.90;;;;;;5076357;28;20322;-66
2023/09/03 02:42:02;;;;;;;8.53;7.83;;;17.20;99.90;;;;;;5064815;28;21081;-66
2023/09/03 02:44:29;;;;;;;9.97;7.73;;;17.10;99.90;;;;;;5064755;28;20207;-66
2023/09/03 02:46:56;;;;;;;8.47;7.67;;;17.10;99.90;;;;;;5083777;28;20222;-66
2023/09/03 02:49:23;;;;;;;8.20;7.50;;;17.10;99.90;;;;;;5084599;28;20762;-66
2023/09/03 02:51:50;;;;;;;7.83;7.13;;;17.10;99.90;;;;;;5084685;28;20207;-66
2023/09/03 02:54:19;;;;;;;7.83;7.23;;;17.00;99.90;;;;;;5087878;28;21061;-66
2023/09/03 02:56:46;;;;;;;8.03;7.43;;;17.10;99.90;;;;;;5102487;28;20304;-66
2023/09/03 02:59:13;;;;;;;8.30;7.50;;;17.10;99.90;;;;;;5084616;28;20940;-66
2023/09/03 03:01:42;;;;;;;8.00;7.30;;;17.00;99.90;;;;;;5084431;28;20317;-66
2023/09/03 03:04:08;;;;;;;7.97;7.13;;;17.00;99.90;;;;;;5084678;28;20293;-66
2023/09/03 03:06:35;;;;;;;7.47;6.77;;;17.00;99.90;;;;;;5084710;28;20237;-66
2023/09/03 03:09:04;;;;;;;8.17;7.27;;;17.00;99.90;;;;;;5083091;28;20644;-66
2023/09/03 03:11:33;;;;;;;9.63;7.27;;;16.90;99.90;;;;;;5083257;28;20226;-66
2023/09/03 03:13:59;;;;;;;8.50;7.60;;;17.00;99.90;;;;;;5084581;28;20668;-67
2023/09/03 03:16:26;;;;;;;7.90;7.30;;;16.90;99.90;;;;;;5085934;28;20310;-67
2023/09/03 03:18:53;;;;;;;8.63;7.00;;;16.90;99.90;;;;;;5104714;28;20762;-67
2023/09/03 03:21:22;;;;;;;6.87;6.37;;;16.90;99.90;;;;;;5098631;28;20282;-66
2023/09/03 03:23:50;;;;;;;7.23;6.70;;;16.90;99.90;;;;;;5084417;28;20202;-67
2023/09/03 03:26:18;;;;;;;9.03;6.90;;;16.90;99.90;;;;;;5084694;28;20239;-66
2023/09/03 03:28:47;;;;;;;7.40;6.70;;;16.90;99.90;;;;;;5084435;28;20598;-67
2023/09/03 03:31:15;;;;;;;8.20;7.10;;;16.80;99.90;;;;;;5076280;28;20227;-67
2023/09/03 03:33:43;;;;;;;7.17;6.60;;;16.80;99.90;;;;;;5068587;28;20199;-67
2023/09/03 03:36:14;;;;;;;6.30;5.87;;;16.80;99.90;;;;;;5079688;28;20206;-67
2023/09/03 03:38:41;;;;;;;6.50;6.00;;;16.80;99.90;;;;;;5088175;28;20195;-67
2023/09/03 03:41:09;;;;;;;6.67;6.07;;;16.80;99.90;;;;;;5088469;28;20279;-67
2023/09/03 03:43:36;;;;;;;6.77;6.27;;;16.80;99.90;;;;;;5088425;28;20202;-67
2023/09/03 03:46:05;;;;;;;6.50;5.97;;;16.80;99.90;;;;;;5084160;28;20343;-67
2023/09/03 03:48:32;;;;;;;6.77;6.27;;;16.80;99.90;;;;;;5106871;28;20305;-67
2023/09/03 03:50:59;;;;;;;6.20;5.80;;;16.80;99.90;;;;;;5096832;28;20213;-67
2023/09/03 03:53:26;;;;;;;6.03;5.53;;;16.80;99.90;;;;;;5088160;28;20302;-67
2023/09/03 03:56:00;;;;;;;6.20;5.60;;;16.80;99.90;;;;;;5088070;28;20210;-67
2023/09/03 03:58:28;;;;;;;6.13;5.73;;;16.80;99.90;;;;;;5088044;28;20321;-66
2023/09/03 04:00:55;;;;;;;6.30;5.90;;;16.80;99.90;;;;;;5084644;28;20697;-66
2023/09/03 04:03:27;;;;;;;6.27;5.70;;;16.80;99.90;;;;;;5088338;28;20306;-66
2023/09/03 04:05:57;;;;;;;6.37;5.73;;;16.80;99.90;;;;;;5087529;28;20574;-66
2023/09/03 04:08:25;;;;;;;6.20;5.77;;;16.70;99.90;;;;;;5067224;28;20745;-66
2023/09/03 04:10:58;;;;;;;6.00;5.60;;;16.70;99.90;;;;;;5066928;28;20797;-66
2023/09/03 04:13:25;;;;;;;6.13;5.67;;;16.70;99.90;;;;;;5067902;28;20214;-66
2023/09/03 04:15:52;;;;;;;6.33;5.87;;;16.70;99.90;;;;;;5067634;28;20207;-66
2023/09/03 04:18:19;;;;;;;6.77;6.03;;;16.70;99.90;;;;;;5101436;28;20758;-66
2023/09/03 04:20:47;;;;;;;6.40;6.00;;;16.70;99.90;;;;;;5081833;28;20692;-66
2023/09/03 04:23:14;;;;;;;6.17;5.67;;;16.70;99.90;;;;;;5067137;28;20210;-66
2023/09/03 04:25:41;;;;;;;6.70;6.20;;;16.70;99.90;;;;;;5067439;28;20285;-66
2023/09/03 04:28:08;;;;;;;6.80;6.30;;;16.70;99.90;;;;;;5066906;28;20211;-66
2023/09/03 04:30:38;;;;;;;6.23;5.77;;;16.70;99.90;;;;;;5067007;28;20968;-65
2023/09/03 04:33:07;;;;;;;6.53;5.57;;;16.70;99.90;;;;;;5079873;28;20210;-65
2023/09/03 04:35:34;;;;;;;5.27;4.77;;;16.70;99.90;;;;;;5087481;28;20693;-66
2023/09/03 04:38:03;;;;;;;6.50;6.10;;;16.70;99.90;;;;;;5086780;28;20301;-65
2023/09/03 04:40:34;;;;;;;6.37;5.77;;;16.70;99.90;;;;;;5086804;28;20936;-66
2023/09/03 04:43:01;;;;;;;5.77;5.27;;;16.60;99.90;;;;;;5082895;28;20666;-65
2023/09/03 04:45:28;;;;;;;6.07;5.67;;;16.60;99.90;;;;;;5066859;28;20231;-66
2023/09/03 04:47:55;;;;;;;5.90;5.40;;;16.60;99.90;;;;;;5096860;28;20198;-65
2023/09/03 04:50:22;;;;;;;5.53;5.07;;;16.60;99.90;;;;;;5107774;28;20293;-66
2023/09/03 04:52:49;;;;;;;6.13;5.27;;;16.60;99.90;;;;;;5107059;28;20216;-66
2023/09/03 04:55:18;;;;;;;6.37;5.87;;;16.60;99.90;;;;;;5098296;28;20227;-65
2023/09/03 04:57:45;;;;;;;5.80;5.30;;;16.60;99.90;;;;;;5086820;28;20217;-65
2023/09/03 05:00:13;;;;;;;5.77;5.33;;;16.50;99.90;;;;;;5086739;28;20273;-66
2023/09/03 05:02:40;;;;;;;5.80;5.30;;;16.40;99.90;;;;;;5086926;28;20236;-65
2023/09/03 05:05:07;;;;;;;6.40;5.87;;;16.50;99.90;;;;;;5086750;28;20206;-66
2023/09/03 05:07:34;;;;;;;5.30;4.90;;;16.40;99.90;;;;;;5073103;28;20303;-65
2023/09/03 05:10:01;;;;;;;5.60;5.20;;;16.40;99.90;;;;;;5065547;28;20216;-65
2023/09/03 05:12:30;;;;;;;5.30;4.80;;;16.50;99.90;;;;;;5066331;28;20258;-66
2023/09/03 05:14:57;;;;;;;5.53;5.03;;;16.50;99.90;;;;;;5066180;28;20314;-65
2023/09/03 05:17:23;;;;;;;5.20;4.80;;;16.40;99.90;;;;;;5084417;28;20254;-66
2023/09/03 05:19:50;;;;;;;5.13;4.73;;;16.50;99.90;;;;;;5091069;28;20635;-66
2023/09/03 05:22:17;;;;;;;4.70;4.40;;;16.50;99.90;;;;;;5086063;28;20298;-65
2023/09/03 05:24:44;;;;;;;4.90;4.60;;;16.50;99.90;;;;;;5086378;28;20567;-65
2023/09/03 05:27:11;;;;;;;5.17;4.67;;;16.50;99.90;;;;;;5086476;28;20345;-65
2023/09/03 05:29:39;;;;;;;4.90;4.50;;;16.50;99.90;;;;;;5086314;28;20225;-66
2023/09/03 05:32:06;;;;;;;5.63;4.77;;;16.50;99.90;;;;;;5084580;28;20222;-65
2023/09/03 05:34:33;;;;;;;6.47;4.50;;;16.50;99.90;;;;;;5086293;28;20310;-66
2023/09/03 05:37:02;;;;;;;5.60;5.03;;;16.50;99.90;;;;;;5085668;28;20210;-66
2023/09/03 05:39:30;;;;;;;5.20;4.70;;;16.50;99.90;;;;;;5085820;28;20674;-66
2023/09/03 05:41:58;;;;;;;4.90;4.33;;;16.50;99.90;;;;;;5085172;28;20704;-66
2023/09/03 05:44:28;;;;;;;4.57;4.23;;;16.50;99.90;;;;;;5085926;28;20225;-66
2023/09/03 05:46:57;;;;;;;4.80;4.40;;;16.50;99.90;;;;;;5090679;28;20276;-66
2023/09/03 05:49:24;;;;;;;6.13;4.60;;;16.50;99.90;;;;;;5106243;28;20209;-66
2023/09/03 05:51:51;;;;;;;5.93;4.30;;;16.50;99.90;;;;;;5105679;28;20278;-66
2023/09/03 05:54:19;;;;;;;5.03;4.53;;;16.50;99.90;;;;;;5100847;27;20204;-66
2023/09/03 05:56:47;;;;;;;4.80;4.50;;;16.50;99.90;;;;;;5085346;28;20237;-67
2023/09/03 05:59:14;;;;;;;5.67;4.13;;;16.60;99.90;;;;;;5085369;28;20207;-67
2023/09/03 06:01:42;;;;;;;5.00;4.07;;;16.60;99.90;;;;;;5085527;28;20269;-67
2023/09/03 06:04:16;;;;;;;4.20;3.90;;;16.60;99.90;;;;;;5069998;28;20302;-66
2023/09/03 06:06:43;;;;;;;4.47;3.80;;;16.70;99.90;;;;;;5065028;28;20247;-66
2023/09/03 06:09:10;;;;;;;3.90;3.60;;;16.70;99.90;;;;;;5064616;28;20294;-66
2023/09/03 06:11:38;;;;;;;4.27;3.90;;;16.80;99.90;;;;;;5066674;28;20300;-66
2023/09/03 06:14:05;;;;;;;4.13;3.80;;;16.70;99.90;;;;;;5068200;28;20361;-67
2023/09/03 06:16:33;;;;;;;4.23;3.83;;;16.80;99.90;;;;;;5068794;28;20203;-66
2023/09/03 06:19:00;;;;;;;4.33;3.93;;;16.80;99.90;;;;;;5091374;28;20216;-67
2023/09/03 06:21:32;;;;;;;4.23;3.93;;;16.90;99.90;;;;;;5081100;28;20244;-67
2023/09/03 06:23:59;;;;;;;4.07;3.80;;;16.80;99.90;;;;;;5076470;28;20206;-67
2023/09/03 06:26:27;;;;;;;3.97;3.60;;;16.70;99.90;;;;;;5084709;28;20262;-67
2023/09/03 06:28:54;;;;;;;4.03;3.80;;;16.80;99.90;;;;;;5084903;28;20736;-67
2023/09/03 06:31:21;;;;;;;4.53;4.17;;;16.80;99.90;;;;;;5076134;28;20203;-68
2023/09/03 06:33:48;;;;;;;5.00;3.60;;;16.80;99.90;;;;;;5084604;28;20551;-67
2023/09/03 06:36:16;;;;;;;5.47;4.10;;;16.90;99.90;;;;;;5084720;28;20218;-67
2023/09/03 06:38:45;;;;;;;4.53;4.23;;;16.90;99.90;;;;;;5084508;28;20744;-67
2023/09/03 06:41:13;;;;;;;4.20;3.90;;;16.90;99.90;;;;;;5070724;28;20671;-67
2023/09/03 06:43:40;;;;;;;5.40;4.90;;;16.90;99.90;;;;;;5077840;28;20210;-67
2023/09/03 06:46:08;;;;;;;5.20;4.20;;;16.80;99.90;;;;;;5084969;28;20268;-67
2023/09/03 06:48:35;;;;;;;4.90;4.40;;;16.80;99.90;;;;;;5104425;28;20298;-68
2023/09/03 06:51:04;;;;;;;5.00;4.70;;;16.90;99.90;;;;;;5105011;28;20597;-68
2023/09/03 06:53:31;;;;;;;4.60;4.30;;;16.90;99.90;;;;;;5105454;28;20788;-67
2023/09/03 06:56:00;;;;;;;4.67;4.27;;;16.90;99.90;;;;;;5077474;28;20211;-67
2023/09/03 06:58:27;;;;;;;4.10;3.80;;;16.70;99.90;;;;;;5082169;28;20260;-67
2023/09/03 07:00:55;;;;;;;4.30;3.90;;;16.80;99.90;;;;;;5084393;28;20787;-67
2023/09/03 07:03:22;;;;;;;3.90;3.70;;;16.90;99.90;;;;;;5084746;28;20274;-67
2023/09/03 07:05:50;;;;;;;3.97;3.60;;;16.90;99.90;;;;;;5086228;28;20221;-66
2023/09/03 07:08:17;;;;;;;4.37;3.90;;;17.00;99.90;;;;;;5080484;28;20662;-67
2023/09/03 07:10:44;;;;;;;3.67;3.37;;;17.10;99.90;;;;;;5088662;28;20588;-67
2023/09/03 07:13:13;;;;;;;3.73;3.03;;;17.10;99.90;;;;;;5088706;28;20276;-67
2023/09/03 07:15:40;;;;;;;4.10;3.30;;;17.10;99.90;;;;;;5088742;28;20210;-67
2023/09/03 07:18:08;;;;;;;4.27;3.00;;;17.10;99.90;;;;;;5101218;28;20213;-67
2023/09/03 07:20:36;;;;;;;3.53;3.10;;;17.10;99.90;;;;;;5068641;28;20203;-67
2023/09/03 07:23:03;;;;;;;4.63;3.10;;;17.20;99.90;;;;;;5067863;28;20213;-67
2023/09/03 07:25:33;;;;;;;4.10;2.83;;;17.30;99.90;;;;;;5068415;28;20215;-67
2023/09/03 07:28:00;;;;;;;3.67;2.90;;;17.20;99.90;;;;;;5081547;28;20570;-67
2023/09/03 07:30:30;;;;;;;5.33;2.50;;;17.20;99.90;;;;;;5084166;28;20200;-67
2023/09/03 07:32:57;;;;;;;4.23;2.50;;;17.20;99.90;;;;;;5067744;28;20560;-67
2023/09/03 07:35:25;;;;;;;2.83;2.30;;;17.20;99.90;;;;;;5067749;28;20207;-67
2023/09/03 07:37:52;;;;;;;3.73;2.20;;;17.30;99.90;;;;;;5067277;28;20211;-67
2023/09/03 07:40:20;;;;;;;5.87;2.50;;;17.40;99.90;;;;;;5068049;28;20212;-67
2023/09/03 07:42:47;;;;;;;2.40;2.00;;;17.40;99.90;;;;;;5072825;28;20295;-69
2023/09/03 07:45:14;;;;;;;4.10;2.20;;;17.50;99.90;;;;;;5088231;28;20283;-69
2023/09/03 07:47:43;;;;;;;2.43;2.17;;;17.60;99.90;;;;;;5076076;28;20241;-67
2023/09/03 07:50:11;;;;;;;4.50;2.10;;;17.70;99.90;;;;;;5067474;28;20213;-68
2023/09/03 07:52:38;;;;;;;2.10;2.00;;;17.70;99.90;;;;;;5081987;28;20213;-67
2023/09/03 07:55:06;;;;;;;3.53;1.90;;;17.80;99.90;;;;;;5087535;28;20240;-67
2023/09/03 07:57:33;;;;;;;4.17;1.80;;;17.90;99.90;;;;;;5087768;28;20264;-68
2023/09/03 08:00:01;;;;;;;2.20;1.70;;;17.90;99.90;;;;;;5087468;28;21044;-68
2023/09/03 08:02:30;;;;;;;3.30;1.83;;;18.00;99.90;;;;;;5087776;28;20213;-67
2023/09/03 08:04:58;;;;;;;2.17;1.80;;;18.00;99.90;;;;;;5083994;28;20681;-68
2023/09/03 08:07:26;;;;;;;6.93;2.03;;;18.10;99.90;;;;;;5074993;28;20592;-68
2023/09/03 08:09:53;;;;;;;2.30;1.80;;;18.10;99.90;;;;;;5087608;28;20206;-69
2023/09/03 08:12:20;;;;;;;3.30;1.80;;;18.10;99.90;;;;;;5087697;28;20229;-68
2023/09/03 08:14:48;;;;;;;3.70;1.80;;;18.10;99.90;;;;;;5087443;28;20213;-68
2023/09/03 08:17:15;;;;;;;2.67;1.70;;;18.10;99.90;;;;;;5094481;28;20221;-68
2023/09/03 08:19:42;;;;;;;2.07;1.70;;;18.10;99.90;;;;;;5095631;28;20207;-69
2023/09/03 08:22:11;;;;;;;3.43;1.70;;;18.20;99.90;;;;;;5087266;28;20217;-67
2023/09/03 08:24:38;;;;;;;2.77;1.90;;;18.10;99.90;;;;;;5086964;28;20264;-68
2023/09/03 08:27:05;;;;;;;4.07;1.60;;;18.20;99.90;;;;;;5086498;28;20304;-68
2023/09/03 08:29:33;;;;;;;3.53;1.30;;;18.20;99.90;;;;;;5087489;28;20872;-67
2023/09/03 08:32:00;;;;;;;3.07;1.67;;;18.30;99.90;;;;;;5079587;28;20215;-68
2023/09/03 08:34:28;;;;;;;2.87;1.60;;;18.20;99.90;;;;;;5067090;28;20219;-68
2023/09/03 08:36:55;;;;;;;2.40;1.50;;;18.30;99.90;;;;;;5075662;28;20194;-68
2023/09/03 08:39:24;;;;;;;1.73;1.33;;;18.40;99.90;;;;;;5094155;28;20338;-67
2023/09/03 08:41:51;;;;;;;1.53;1.30;;;18.40;99.90;;;;;;5104596;28;20766;-68
2023/09/03 08:44:33;;;;;;;1.50;1.40;;;18.40;99.90;;;;;;5086993;28;20213;-68
2023/09/03 08:47:00;;;;;;;10.07;2.13;;;18.60;99.90;;;;;;5087035;28;20229;-68
2023/09/03 08:49:30;;;;;;;2.70;1.70;;;18.60;99.90;;;;;;5068041;28;20211;-67
2023/09/03 08:51:59;;;;;;;1.43;1.23;;;18.40;99.90;;;;;;5066831;28;20219;-67
2023/09/03 08:54:28;;;;;;;2.83;1.40;;;18.30;99.90;;;;;;5066266;28;20224;-67
2023/09/03 08:56:55;;;;;;;2.37;1.70;;;18.40;99.90;;;;;;5066158;28;20208;-69
2023/09/03 08:59:22;;;;;;;1.60;1.17;;;18.50;99.90;;;;;;5066260;28;20622;-68
2023/09/03 09:01:54;;;;;;;5.67;1.53;;;18.70;99.90;;;;;;5071013;28;20263;-68
2023/09/03 09:04:22;;;;;;;3.90;1.33;;;18.80;99.90;;;;;;5066770;28;20324;-69
2023/09/03 09:06:51;;;;;;;2.50;1.20;;;18.80;99.90;;;;;;5065918;28;20240;-68
2023/09/03 09:09:19;;;;;;;2.07;1.30;;;18.80;99.90;;;;;;5065211;28;20893;-68
2023/09/03 09:11:55;;;;;;;1.47;1.20;;;18.90;99.90;;;;;;5065205;28;20230;-68
2023/09/03 09:14:29;;;;;;;2.23;1.20;;;19.00;99.90;;;;;;5082205;28;20286;-67
2023/09/03 09:16:56;;;;;;;1.50;1.40;;;19.00;99.90;;;;;;5089878;28;20669;-67
2023/09/03 09:19:23;;;;;;;3.53;1.47;;;18.90;99.90;;;;;;5090484;28;20260;-67
2023/09/03 09:21:50;;;;;;;4.23;1.50;;;18.80;99.90;;;;;;5085107;28;20211;-67
2023/09/03 09:24:17;;;;;;;2.20;1.17;;;18.90;99.90;;;;;;5084775;28;20672;-67
2023/09/03 09:26:44;;;;;;;1.60;1.00;;;18.90;99.90;;;;;;5085063;28;20199;-67
2023/09/03 09:29:12;;;;;;;1.93;1.30;;;18.90;99.90;;;;;;5084622;28;20203;-67
2023/09/03 09:31:39;;;;;;;2.10;1.27;;;19.10;99.90;;;;;;5069858;28;20206;-67
2023/09/03 09:34:12;;;;;;;2.13;1.30;;;19.20;99.90;;;;;;5064725;28;20209;-67
2023/09/03 09:36:52;;;;;;;3.13;1.20;;;19.30;99.90;;;;;;5076898;28;20717;-68
2023/09/03 09:39:19;;;;;;;1.10;1.00;;;19.30;99.90;;;;;;5084537;28;20281;-68
2023/09/03 09:41:49;;;;;;;1.97;1.03;;;19.40;99.90;;;;;;5084684;28;20657;-68
2023/09/03 09:44:18;;;;;;;2.93;1.13;;;19.40;99.90;;;;;;5077166;28;20283;-68
2023/09/03 09:46:45;;;;;;;2.30;1.30;;;19.50;99.90;;;;;;5071405;28;20237;-68
2023/09/03 09:49:12;;;;;;;4.97;1.30;;;19.60;99.90;;;;;;5104728;28;20296;-68
2023/09/03 09:51:39;;;;;;;1.10;1.00;;;19.50;99.90;;;;;;5104820;28;20673;-68
2023/09/03 09:54:06;;;;;;;2.10;1.20;;;19.50;99.90;;;;;;5104595;28;20971;-68
2023/09/03 09:56:35;;;;;;;3.57;1.23;;;19.50;99.90;;;;;;5103447;28;20206;-68
2023/09/03 09:59:03;;;;;;;1.67;0.97;;;19.50;99.90;;;;;;5066532;28;20338;-68
2023/09/03 10:01:44;;;;;;;1.30;1.20;;;19.40;99.90;;;;;;5072061;28;20230;-68
2023/09/03 10:04:11;;;;;;;2.90;1.50;;;19.50;99.90;;;;;;5084195;28;20267;-68
2023/09/03 10:06:40;;;;;;;2.70;1.27;;;19.50;99.90;;;;;;5084097;28;20210;-67
2023/09/03 10:09:08;;;;;;;1.07;0.97;;;19.50;99.90;;;;;;5079080;28;20241;-68
2023/09/03 10:11:35;;;;;;;1.47;1.00;;;19.60;99.90;;;;;;5064180;28;20366;-68
2023/09/03 10:14:02;;;;;;;1.63;1.30;;;19.60;99.90;;;;;;5063566;28;20830;-68
2023/09/03 10:16:30;;;;;;;1.63;1.10;;;19.60;99.90;;;;;;5063831;28;20218;-68
2023/09/03 10:19:02;;;;;;;1.30;1.20;;;19.60;99.90;;;;;;5063450;28;20221;-68
2023/09/03 10:21:33;;;;;;;2.93;1.73;;;19.70;99.90;;;;;;5063785;28;20282;-68
2023/09/03 10:24:00;;;;;;;2.30;1.20;;;19.70;99.90;;;;;;5063822;28;20287;-68
2023/09/03 10:26:34;;;;;;;1.37;1.10;;;19.80;99.90;;;;;;5063746;28;20290;-68
2023/09/03 10:29:05;;;;;;;2.43;1.00;;;19.90;99.90;;;;;;5063736;28;20258;-65
2023/09/03 10:31:33;;;;;;;4.27;1.20;;;20.00;99.90;;;;;;5082340;28;20568;-65
2023/09/03 10:34:02;;;;;;;0.80;0.80;;;20.30;99.90;;;;;;5103821;28;20292;-66
2023/09/03 10:36:30;;;;;;;1.43;1.10;;;20.50;99.90;;;;;;5063865;28;20300;-66
2023/09/03 10:38:59;;;;;;;1.33;1.10;;;20.70;99.90;;;;;;5062812;28;20208;-67
2023/09/03 10:41:28;;;;;;;1.30;1.20;;;20.90;99.90;;;;;;5077297;28;20234;-67
2023/09/03 10:43:56;;;;;;;2.15;1.20;;;21.10;99.90;;;;;;5083212;28;20207;-66
2023/09/03 10:46:25;;;;;;;1.23;1.13;;;21.20;99.90;;;;;;5082792;28;20329;-66
2023/09/03 10:48:53;;;;;;;2.17;1.17;;;21.20;99.90;;;;;;5103906;28;20246;-67
2023/09/03 10:51:35;;;;;;;1.90;1.00;;;21.20;99.90;;;;;;5103512;28;20210;-66
2023/09/03 10:54:19;;;;;;;2.00;1.20;;;21.30;99.90;;;;;;5086274;28;20291;-67
2023/09/03 10:57:22;;;;;;;1.55;1.17;;;21.40;99.90;;;;;;5063369;28;20227;-66
2023/09/03 11:00:11;;;;;;;3.08;1.30;;;21.60;99.90;;;;;;5067130;28;20278;-66
2023/09/03 11:02:39;;;;;;;2.80;1.20;;;21.50;99.90;;;;;;5083518;28;20289;-67
2023/09/03 11:05:10;;;;;;;2.38;1.65;;;21.60;99.90;;;;;;5083421;28;20213;-66
2023/09/03 11:07:39;;;;;;;1.77;1.17;;;21.70;99.90;;;;;;5082227;28;20592;-66
2023/09/03 11:10:43;;;;;;;5.13;1.25;;;21.70;99.90;;;;;;5081680;28;20234;-66
2023/09/03 11:13:14;;;;;;;1.30;1.10;;;21.60;99.90;;;;;;5082794;28;20281;-66
2023/09/03 11:15:49;;;;;;;2.10;1.38;;;21.30;99.90;;;;;;5082933;28;20226;-66
2023/09/03 11:18:20;;;;;;;1.75;1.13;;;21.30;99.90;;;;;;5081485;28;20206;-66
2023/09/03 11:20:48;;;;;;;0.93;0.90;;;21.50;99.90;;;;;;5068925;28;20192;-66
2023/09/03 11:23:17;;;;;;;1.92;1.17;;;21.70;99.90;;;;;;5063357;28;20203;-67
2023/09/03 11:25:46;;;;;;;1.25;1.15;;;21.80;99.90;;;;;;5063278;28;20722;-67
2023/09/03 11:28:13;;;;;;;2.30;1.02;;;21.90;99.90;;;;;;5066716;28;20230;-67
2023/09/03 11:30:41;;;;;;;2.20;1.20;;;22.00;99.90;;;;;;5076829;28;20662;-66
2023/09/03 11:33:09;;;;;;;3.80;1.48;;;22.10;99.90;;;;;;5063234;28;20304;-67
2023/09/03 11:35:42;;;;;;;2.38;1.27;;;22.20;99.90;;;;;;5062888;28;20211;-66
2023/09/03 11:38:09;;;;;;;2.88;1.40;;;22.30;99.90;;;;;;5063922;28;20293;-67
2023/09/03 11:40:37;;;;;;;1.40;1.25;;;22.20;99.90;;;;;;5062871;28;20295;-67
2023/09/03 11:43:07;;;;;;;2.15;1.23;;;22.30;99.90;;;;;;5062871;28;20283;-67
2023/09/03 11:45:34;;;;;;;1.27;1.20;;;22.40;99.90;;;;;;5063005;28;20227;-66
2023/09/03 11:48:06;;;;;;;0.80;0.80;;;22.50;99.90;;;;;;5091603;28;20273;-66
2023/09/03 11:50:33;;;;;;;1.30;1.20;;;22.60;99.90;;;;;;5081535;28;20668;-66
2023/09/03 11:53:00;;;;;;;2.95;1.30;;;22.40;99.90;;;;;;5073575;28;20195;-66
2023/09/03 11:55:29;;;;;;;2.78;1.30;;;22.30;99.90;;;;;;5086678;28;20202;-66
2023/09/03 11:58:00;;;;;;;1.65;1.08;;;22.30;99.90;;;;;;5086441;28;20267;-67
2023/09/03 12:00:27;;;;;;;1.88;1.20;;;22.40;99.90;;;;;;5086422;28;20241;-66
2023/09/03 12:02:55;;;;;;;1.65;1.30;;;22.60;99.90;;;;;;5071108;28;20302;-67
2023/09/03 12:05:23;;;;;;;1.38;1.00;;;22.70;99.90;;;;;;5072560;28;20290;-66
2023/09/03 12:07:50;;;;;;;1.02;1.00;;;22.80;99.90;;;;;;5086010;28;20338;-66
2023/09/03 12:10:18;;;;;;;1.33;1.20;;;22.80;99.90;;;;;;5086300;28;20254;-67
2023/09/03 12:12:45;;;;;;;2.08;1.20;;;22.90;99.90;;;;;;5086013;28;20573;-66
2023/09/03 12:15:21;;;;;;;1.63;1.23;;;22.90;99.90;;;;;;5068888;28;20644;-67
2023/09/03 12:17:49;;;;;;;1.23;1.13;;;22.90;99.90;;;;;;5066331;28;20217;-66
2023/09/03 12:20:39;;;;;;;1.30;1.20;;;22.80;99.90;;;;;;5065767;28;20207;-67
2023/09/03 12:23:07;;;;;;;1.90;1.10;;;22.70;99.90;;;;;;5065481;28;20674;-66
2023/09/03 12:25:34;;;;;;;3.05;1.20;;;22.70;99.90;;;;;;5101140;28;20220;-66
2023/09/03 12:28:01;;;;;;;1.10;1.10;;;22.70;99.90;;;;;;5097409;28;20601;-67
2023/09/03 12:30:57;;;;;;;2.17;1.13;;;22.80;99.90;;;;;;5065435;28;20739;-67
2023/09/03 12:33:27;;;;;;;1.52;1.08;;;22.60;99.90;;;;;;5075636;28;20221;-67
2023/09/03 12:36:07;;;;;;;1.27;1.20;;;22.70;99.90;;;;;;5086015;28;20294;-66
2023/09/03 12:38:48;;;;;;;1.58;1.20;;;22.90;99.90;;;;;;5086784;28;20567;-66
2023/09/03 12:41:16;;;;;;;2.08;1.10;;;23.20;99.90;;;;;;5085546;28;20668;-67
2023/09/03 12:43:42;;;;;;;2.35;1.40;;;23.50;99.90;;;;;;5086041;28;20290;-66
2023/09/03 12:46:11;;;;;;;1.23;1.10;;;23.60;99.90;;;;;;5077276;28;20310;-67
2023/09/03 12:48:38;;;;;;;1.25;1.25;;;23.40;99.90;;;;;;5104484;28;20337;-67
2023/09/03 12:51:05;;;;;;;1.65;1.10;;;23.40;99.90;;;;;;5092807;28;20214;-67
2023/09/03 12:53:32;;;;;;;1.60;1.20;;;23.40;99.90;;;;;;5085716;28;20195;-67
2023/09/03 12:55:59;;;;;;;1.23;1.13;;;23.30;99.90;;;;;;5085693;28;20547;-66
2023/09/03 12:58:26;;;;;;;1.05;0.80;;;23.40;99.90;;;;;;5094815;28;20198;-66